createdAt,value
2017-01-25T00:00:12.715Z,0
2017-01-25T00:02:20.016Z,0
2017-01-25T00:04:32.389Z,0
2017-01-25T00:06:44.678Z,0
2017-01-25T00:08:56.890Z,0
2017-01-25T00:11:09.927Z,0
2017-01-25T00:13:22.693Z,0
2017-01-25T00:15:35.043Z,0
2017-01-25T00:17:42.363Z,0
2017-01-25T00:19:54.584Z,0
2017-01-25T00:22:06.886Z,0
2017-01-25T00:24:19.058Z,0
2017-01-25T00:26:31.224Z,0
2017-01-25T00:28:43.461Z,0
2017-01-25T00:30:55.654Z,0
2017-01-25T00:33:08.127Z,0
2017-01-25T00:35:20.556Z,0
2017-01-25T00:37:32.839Z,0
2017-01-25T00:39:45.076Z,0
2017-01-25T00:41:57.291Z,0
2017-01-25T00:44:09.579Z,0
2017-01-25T00:46:22.034Z,0
2017-01-25T00:48:34.744Z,0
2017-01-25T00:50:47.177Z,0
2017-01-25T00:52:59.381Z,0
2017-01-25T00:55:11.647Z,0
2017-01-25T00:57:23.895Z,0
2017-01-25T00:59:36.171Z,0
2017-01-25T01:01:48.388Z,0
2017-01-25T01:04:00.664Z,0
2017-01-25T01:06:13.067Z,0
2017-01-25T01:08:25.464Z,0
2017-01-25T01:10:32.808Z,0
2017-01-25T01:12:40.107Z,0
2017-01-25T01:14:52.308Z,0
2017-01-25T01:17:04.489Z,0
2017-01-25T01:19:16.772Z,0
2017-01-25T01:21:29.269Z,0
2017-01-25T01:23:36.822Z,0
2017-01-25T01:25:49.237Z,0
2017-01-25T01:28:01.580Z,0
2017-01-25T01:30:13.911Z,0
2017-01-25T01:32:26.080Z,0
2017-01-25T01:34:38.597Z,0
2017-01-25T01:36:46.069Z,0
2017-01-25T01:38:58.335Z,0
2017-01-25T01:41:05.585Z,0
2017-01-25T01:43:17.874Z,0
2017-01-25T01:45:30.190Z,0
2017-01-25T01:47:42.425Z,0
2017-01-25T01:49:54.892Z,0
2017-01-25T01:52:07.142Z,0
2017-01-25T01:54:19.486Z,0
2017-01-25T01:56:32.478Z,0
2017-01-25T01:58:44.891Z,0
2017-01-25T02:00:57.130Z,0
2017-01-25T02:03:04.507Z,0
2017-01-25T02:05:16.844Z,0
2017-01-25T02:07:29.137Z,0
2017-01-25T02:09:36.498Z,0
2017-01-25T02:11:43.933Z,0
2017-01-25T02:13:51.174Z,0
2017-01-25T02:16:03.335Z,0
2017-01-25T02:18:15.598Z,0
2017-01-25T02:20:22.997Z,0
2017-01-25T02:22:35.432Z,0
2017-01-25T02:24:47.631Z,0
2017-01-25T02:27:00.013Z,0
2017-01-25T02:29:12.814Z,0
2017-01-25T02:31:25.708Z,0
2017-01-25T02:33:33.182Z,0
2017-01-25T02:35:40.355Z,0
2017-01-25T02:37:52.634Z,0
2017-01-25T02:40:00.036Z,0
2017-01-25T02:42:12.240Z,0
2017-01-25T02:44:24.412Z,0
2017-01-25T02:46:36.632Z,0
2017-01-25T02:48:43.835Z,0
2017-01-25T02:50:56.124Z,0
2017-01-25T02:53:03.503Z,0
2017-01-25T02:55:15.735Z,0
2017-01-25T02:57:28.026Z,0
2017-01-25T02:59:40.403Z,0
2017-01-25T03:01:42.899Z,0
2017-01-25T03:03:55.985Z,0
2017-01-25T03:06:08.677Z,0
2017-01-25T03:08:20.994Z,0
2017-01-25T03:10:28.284Z,0
2017-01-25T03:12:40.564Z,0
2017-01-25T03:14:52.779Z,0
2017-01-25T03:17:05.246Z,0
2017-01-25T03:19:17.432Z,0
2017-01-25T03:21:29.589Z,0
2017-01-25T03:23:41.893Z,0
2017-01-25T03:25:54.080Z,0
2017-01-25T03:28:06.311Z,0
2017-01-25T03:30:18.633Z,0
2017-01-25T03:32:30.794Z,0
2017-01-25T03:34:42.990Z,0
2017-01-25T03:36:55.151Z,0
2017-01-25T03:39:07.912Z,0
2017-01-25T03:41:20.351Z,0
2017-01-25T03:43:32.658Z,0
2017-01-25T03:45:45.294Z,0
2017-01-25T03:47:57.632Z,0
2017-01-25T03:50:09.824Z,0
2017-01-25T03:52:22.163Z,0
2017-01-25T03:54:34.630Z,0
2017-01-25T03:56:47.252Z,0
2017-01-25T03:58:59.659Z,0
2017-01-25T04:01:11.879Z,0
2017-01-25T04:03:24.070Z,0
2017-01-25T04:05:36.406Z,0
2017-01-25T04:07:48.745Z,0
2017-01-25T04:10:01.024Z,0
2017-01-25T04:12:13.660Z,0
2017-01-25T04:14:26.409Z,0
2017-01-25T04:16:38.836Z,0
2017-01-25T04:18:51.149Z,0
2017-01-25T04:21:03.509Z,0
2017-01-25T04:23:16.370Z,0
2017-01-25T04:25:30.173Z,0
2017-01-25T04:27:42.512Z,0
2017-01-25T04:29:54.809Z,0
2017-01-25T04:32:07.136Z,0
2017-01-25T04:34:19.374Z,0
2017-01-25T04:36:31.792Z,0
2017-01-25T04:38:43.948Z,0
2017-01-25T04:40:56.146Z,0
2017-01-25T04:43:08.290Z,0
2017-01-25T04:45:20.489Z,0
2017-01-25T04:47:33.502Z,0
2017-01-25T04:49:45.826Z,0
2017-01-25T04:51:58.911Z,0
2017-01-25T04:54:11.073Z,0
2017-01-25T04:56:23.343Z,0
2017-01-25T04:58:35.626Z,0
2017-01-25T05:00:47.908Z,0
2017-01-25T05:03:00.206Z,0
2017-01-25T05:05:12.411Z,0
2017-01-25T05:09:30.333Z,0
2017-01-25T05:11:42.612Z,0
2017-01-25T05:13:54.994Z,0
2017-01-25T05:16:07.312Z,0
2017-01-25T05:18:20.435Z,0
2017-01-25T05:20:32.900Z,0
2017-01-25T05:22:45.611Z,0
2017-01-25T05:24:58.140Z,0
2017-01-25T05:27:05.465Z,0
2017-01-25T05:29:12.690Z,0
2017-01-25T05:31:24.845Z,0
2017-01-25T05:33:36.984Z,0
2017-01-25T05:35:49.350Z,0
2017-01-25T05:38:01.622Z,0
2017-01-25T05:40:13.977Z,0
2017-01-25T05:42:26.204Z,0
2017-01-25T05:44:38.337Z,0
2017-01-25T05:46:50.821Z,0
2017-01-25T05:49:03.044Z,0
2017-01-25T05:51:15.371Z,0
2017-01-25T05:53:27.528Z,0
2017-01-25T05:55:39.970Z,0
2017-01-25T05:57:52.773Z,0
2017-01-25T06:00:05.214Z,0
2017-01-25T06:02:17.702Z,0
2017-01-25T06:04:30.090Z,0
2017-01-25T06:06:42.502Z,0
2017-01-25T06:08:54.892Z,0
2017-01-25T06:11:07.024Z,0
2017-01-25T06:13:19.293Z,0
2017-01-25T06:15:31.699Z,0
2017-01-25T06:17:43.911Z,0
2017-01-25T06:19:56.111Z,0
2017-01-25T06:22:08.284Z,4
2017-01-25T06:24:20.752Z,4
2017-01-25T06:26:32.925Z,4
2017-01-25T06:28:46.800Z,4
2017-01-25T06:30:59.696Z,4
2017-01-25T06:33:12.048Z,8
2017-01-25T06:35:24.380Z,12
2017-01-25T06:37:36.743Z,16
2017-01-25T06:39:49.205Z,20
2017-01-25T06:41:56.465Z,28
2017-01-25T06:44:08.667Z,32
2017-01-25T06:46:20.981Z,44
2017-01-25T06:48:33.194Z,56
2017-01-25T06:50:45.389Z,76
2017-01-25T06:52:52.897Z,88
2017-01-25T06:55:05.198Z,104
2017-01-25T06:57:17.434Z,128
2017-01-25T06:59:29.780Z,148
2017-01-25T07:01:42.171Z,172
2017-01-25T07:03:54.660Z,200
2017-01-25T07:06:07.605Z,224
2017-01-25T07:08:15.107Z,244
2017-01-25T07:10:22.481Z,268
2017-01-25T07:12:29.772Z,304
2017-01-25T07:14:37.248Z,332
2017-01-25T07:16:49.616Z,372
2017-01-25T07:18:57.252Z,436
2017-01-25T07:21:09.600Z,496
2017-01-25T07:23:16.981Z,560
2017-01-25T07:25:29.290Z,576
2017-01-25T07:27:41.468Z,624
2017-01-25T07:29:49.083Z,656
2017-01-25T07:32:01.518Z,696
2017-01-25T07:34:14.248Z,760
2017-01-25T07:36:48.563Z,796
2017-01-25T07:38:56.812Z,844
2017-01-25T07:41:09.669Z,900
2017-01-25T07:43:22.176Z,988
2017-01-25T07:45:29.389Z,1016
2017-01-25T07:47:41.761Z,1104
2017-01-25T07:49:55.417Z,1164
2017-01-25T07:52:07.852Z,1208
2017-01-25T07:54:20.180Z,1252
2017-01-25T07:56:32.643Z,1360
2017-01-25T07:58:45.319Z,1396
2017-01-25T08:00:57.802Z,1480
2017-01-25T08:03:10.289Z,1476
2017-01-25T08:05:24.429Z,1544
2017-01-25T08:07:36.857Z,1608
2017-01-25T08:09:50.180Z,1672
2017-01-25T08:12:02.453Z,1708
2017-01-25T08:14:14.676Z,1828
2017-01-25T08:16:27.073Z,1872
2017-01-25T08:18:39.505Z,2008
2017-01-25T08:20:52.481Z,2076
2017-01-25T08:23:05.061Z,2112
2017-01-25T08:25:17.615Z,2224
2017-01-25T08:27:29.807Z,2224
2017-01-25T08:29:37.407Z,2284
2017-01-25T08:31:49.697Z,2352
2017-01-25T08:34:01.936Z,2384
2017-01-25T08:36:14.273Z,2408
2017-01-25T08:38:26.862Z,2460
2017-01-25T08:40:39.212Z,2584
2017-01-25T08:42:51.686Z,2740
2017-01-25T08:45:04.089Z,2848
2017-01-25T08:47:16.421Z,2868
2017-01-25T08:49:28.755Z,3012
2017-01-25T08:51:36.305Z,3044
2017-01-25T08:53:48.876Z,3084
2017-01-25T08:56:01.404Z,3216
2017-01-25T08:58:13.895Z,3260
2017-01-25T09:00:26.118Z,3356
2017-01-25T09:02:33.656Z,3500
2017-01-25T09:04:45.891Z,3636
2017-01-25T09:06:58.140Z,3864
2017-01-25T09:09:05.648Z,3944
2017-01-25T09:11:17.890Z,4056
2017-01-25T09:13:25.226Z,4088
2017-01-25T09:15:37.488Z,4216
2017-01-25T09:17:49.685Z,4312
2017-01-25T09:20:02.231Z,4752
2017-01-25T09:22:14.685Z,4836
2017-01-25T09:24:26.958Z,4604
2017-01-25T09:26:39.109Z,4520
2017-01-25T09:28:51.984Z,4656
2017-01-25T09:31:04.691Z,4816
2017-01-25T09:33:17.287Z,4888
2017-01-25T09:35:29.572Z,5152
2017-01-25T09:37:42.064Z,5512
2017-01-25T09:39:54.565Z,5764
2017-01-25T09:42:06.996Z,5644
2017-01-25T09:44:19.719Z,5524
2017-01-25T09:46:32.315Z,5480
2017-01-25T09:48:48.236Z,5712
2017-01-25T09:51:01.816Z,5436
2017-01-25T09:53:14.198Z,5608
2017-01-25T09:55:26.402Z,5692
2017-01-25T09:57:38.729Z,5716
2017-01-25T09:59:49.362Z,5696
2017-01-25T10:02:01.799Z,5712
2017-01-25T10:04:14.483Z,5772
2017-01-25T10:06:22.107Z,5844
2017-01-25T10:08:34.769Z,6032
2017-01-25T10:10:47.013Z,5788
2017-01-25T10:12:54.458Z,5760
2017-01-25T10:15:01.824Z,5612
2017-01-25T10:17:09.302Z,5600
2017-01-25T10:19:22.028Z,5792
2017-01-25T10:21:34.448Z,5996
2017-01-25T10:23:46.834Z,6212
2017-01-25T10:25:59.037Z,6304
2017-01-25T10:28:06.343Z,6764
2017-01-25T10:30:18.556Z,6520
2017-01-25T10:32:30.876Z,6296
2017-01-25T10:34:43.166Z,6392
2017-01-25T10:36:55.531Z,6816
2017-01-25T10:39:08.104Z,6312
2017-01-25T10:41:15.930Z,6240
2017-01-25T10:43:28.997Z,6296
2017-01-25T10:45:41.213Z,6020
2017-01-25T10:47:53.655Z,6296
2017-01-25T10:50:05.912Z,6092
2017-01-25T10:52:18.208Z,6428
2017-01-25T10:54:30.423Z,6604
2017-01-25T10:56:42.724Z,6780
2017-01-25T10:58:55.395Z,6408
2017-01-25T11:01:05.888Z,6664
2017-01-25T11:03:13.123Z,6496
2017-01-25T11:05:25.407Z,6644
2017-01-25T11:07:32.631Z,6740
2017-01-25T11:09:44.908Z,6492
2017-01-25T11:11:57.309Z,6600
2017-01-25T11:14:09.803Z,6960
2017-01-25T11:16:22.117Z,6872
2017-01-25T11:18:34.763Z,6632
2017-01-25T11:20:47.144Z,6708
2017-01-25T11:22:54.407Z,6600
2017-01-25T11:25:07.071Z,6936
2017-01-25T11:27:19.415Z,7040
2017-01-25T11:29:31.728Z,7092
2017-01-25T11:31:44.187Z,7120
2017-01-25T11:33:56.609Z,7228
2017-01-25T11:36:09.114Z,7424
2017-01-25T11:38:21.443Z,7832
2017-01-25T11:40:28.629Z,7592
2017-01-25T11:42:40.880Z,7980
2017-01-25T11:44:53.129Z,7324
2017-01-25T11:47:05.614Z,7188
2017-01-25T11:49:18.001Z,6992
2017-01-25T11:51:30.610Z,7236
2017-01-25T11:53:38.158Z,6820
2017-01-25T11:55:50.431Z,6744
2017-01-25T11:57:57.893Z,6992
2017-01-25T12:00:10.067Z,6872
2017-01-25T12:02:22.393Z,7012
2017-01-25T12:04:40.358Z,6908
2017-01-25T12:06:52.627Z,7324
2017-01-25T12:09:00.017Z,7016
2017-01-25T12:11:13.980Z,7272
2017-01-25T12:13:26.265Z,7192
2017-01-25T12:15:38.747Z,7244
2017-01-25T12:17:51.079Z,6904
2017-01-25T12:20:03.448Z,7012
2017-01-25T12:22:10.807Z,7028
2017-01-25T12:24:23.058Z,7320
2017-01-25T12:26:35.327Z,7472
2017-01-25T12:28:42.934Z,7492
2017-01-25T12:30:50.423Z,7032
2017-01-25T12:33:02.884Z,7048
2017-01-25T12:35:15.214Z,6852
2017-01-25T12:37:27.494Z,6720
2017-01-25T12:39:39.699Z,7044
2017-01-25T12:41:42.125Z,6992
2017-01-25T12:43:49.378Z,6564
2017-01-25T12:46:01.770Z,6176
2017-01-25T12:48:14.051Z,6236
2017-01-25T12:50:28.005Z,6144
2017-01-25T12:52:40.426Z,5828
2017-01-25T12:54:52.689Z,5816
2017-01-25T12:57:04.938Z,5840
2017-01-25T12:59:07.471Z,5652
2017-01-25T13:01:19.845Z,5484
2017-01-25T13:03:32.253Z,5360
2017-01-25T13:05:44.801Z,5444
2017-01-25T13:07:57.206Z,5284
2017-01-25T13:10:09.712Z,5104
2017-01-25T13:12:17.013Z,4972
2017-01-25T13:14:30.334Z,5044
2017-01-25T13:16:42.538Z,5048
2017-01-25T13:18:54.867Z,5092
2017-01-25T13:21:07.604Z,5060
2017-01-25T13:23:15.150Z,4904
2017-01-25T13:25:28.661Z,4652
2017-01-25T13:27:40.971Z,4408
2017-01-25T13:29:53.168Z,4452
2017-01-25T13:32:05.673Z,4324
2017-01-25T13:34:18.191Z,4572
2017-01-25T13:36:30.643Z,4284
2017-01-25T13:38:43.065Z,3856
2017-01-25T13:40:55.628Z,3740
2017-01-25T13:43:02.983Z,3832
2017-01-25T13:45:15.215Z,3680
2017-01-25T13:47:22.524Z,3504
2017-01-25T13:49:34.898Z,3212
2017-01-25T13:51:47.485Z,3452
2017-01-25T13:54:00.181Z,3384
2017-01-25T13:56:08.801Z,3504
2017-01-25T13:58:17.327Z,3324
2017-01-25T14:00:30.117Z,3288
2017-01-25T14:02:42.372Z,3116
2017-01-25T14:04:54.701Z,3032
2017-01-25T14:07:06.907Z,3028
2017-01-25T14:09:19.454Z,2980
2017-01-25T14:11:31.816Z,3028
2017-01-25T14:13:44.604Z,2988
2017-01-25T14:15:53.342Z,2844
2017-01-25T14:18:01.684Z,2788
2017-01-25T14:20:14.365Z,2680
2017-01-25T14:22:26.710Z,2364
2017-01-25T14:24:39.075Z,2324
2017-01-25T14:26:52.570Z,2144
2017-01-25T14:29:04.944Z,2060
2017-01-25T14:31:17.247Z,2136
2017-01-25T14:33:30.009Z,2004
2017-01-25T14:35:42.578Z,1892
2017-01-25T14:37:56.156Z,1800
2017-01-25T14:40:08.481Z,1740
2017-01-25T14:42:20.899Z,1688
2017-01-25T14:44:33.206Z,1624
2017-01-25T14:46:45.686Z,1504
2017-01-25T14:48:58.196Z,1456
2017-01-25T14:51:10.448Z,1396
2017-01-25T14:53:24.256Z,1340
2017-01-25T14:55:37.697Z,1348
2017-01-25T14:57:51.118Z,1272
2017-01-25T15:00:03.579Z,1224
2017-01-25T15:02:15.884Z,1184
2017-01-25T15:04:29.176Z,1104
2017-01-25T15:06:41.788Z,1036
2017-01-25T15:08:54.235Z,972
2017-01-25T15:11:01.769Z,940
2017-01-25T15:13:15.168Z,1004
2017-01-25T15:15:29.032Z,864
2017-01-25T15:17:42.252Z,784
2017-01-25T15:19:54.860Z,752
2017-01-25T15:22:04.344Z,728
2017-01-25T15:24:12.302Z,732
2017-01-25T15:26:24.928Z,680
2017-01-25T15:28:37.540Z,620
2017-01-25T15:30:52.288Z,572
2017-01-25T15:33:08.085Z,492
2017-01-25T15:35:20.767Z,456
2017-01-25T15:37:33.541Z,444
2017-01-25T15:39:45.994Z,420
2017-01-25T15:41:58.348Z,376
2017-01-25T15:44:13.417Z,316
2017-01-25T15:49:34.949Z,232
2017-01-25T15:51:49.140Z,196
2017-01-25T15:54:02.611Z,168
2017-01-25T15:56:15.006Z,152
2017-01-25T15:58:27.354Z,136
2017-01-25T16:00:40.734Z,112
2017-01-25T16:02:53.112Z,92
2017-01-25T16:05:07.243Z,76
2017-01-25T16:07:19.752Z,64
2017-01-25T16:09:32.097Z,48
2017-01-25T16:11:39.776Z,36
2017-01-25T16:13:52.059Z,28
2017-01-25T16:16:04.493Z,20
2017-01-25T16:18:17.883Z,16
2017-01-25T16:20:30.076Z,8
2017-01-25T16:22:42.480Z,8
2017-01-25T16:24:55.110Z,4
2017-01-25T16:27:07.500Z,4
2017-01-25T16:29:19.767Z,4
2017-01-25T16:31:32.286Z,0
2017-01-25T16:33:44.531Z,0
2017-01-25T16:35:56.778Z,0
2017-01-25T16:38:09.360Z,0
2017-01-25T16:40:21.963Z,0
2017-01-25T16:42:34.552Z,0
2017-01-25T16:44:47.150Z,0
2017-01-25T16:46:54.641Z,0
2017-01-25T16:49:08.302Z,0
2017-01-25T16:51:20.585Z,0
2017-01-25T16:53:32.795Z,0
2017-01-25T16:55:45.046Z,0
2017-01-25T16:57:52.297Z,0
2017-01-25T17:00:04.751Z,0
2017-01-25T17:02:16.975Z,0
2017-01-25T17:04:29.962Z,0
2017-01-25T17:06:42.307Z,0
2017-01-25T17:08:54.857Z,0
2017-01-25T17:11:07.216Z,0
2017-01-25T17:13:14.619Z,0
2017-01-25T17:15:27.002Z,0
2017-01-25T17:17:39.354Z,0
2017-01-25T17:19:51.665Z,0
2017-01-25T17:21:59.152Z,0
2017-01-25T17:24:12.018Z,0
2017-01-25T17:26:24.395Z,0
2017-01-25T17:28:36.620Z,0
2017-01-25T17:30:49.059Z,0
2017-01-25T17:33:01.370Z,0
2017-01-25T17:35:08.710Z,0
2017-01-25T17:37:21.102Z,0
2017-01-25T17:39:33.416Z,0
2017-01-25T17:41:45.701Z,0
2017-01-25T17:43:58.028Z,0
2017-01-25T17:46:10.447Z,0
2017-01-25T17:48:22.886Z,0
2017-01-25T17:50:36.210Z,0
2017-01-25T17:52:49.173Z,0
2017-01-25T17:55:01.577Z,0
2017-01-25T17:57:13.878Z,0
2017-01-25T17:59:26.564Z,0
2017-01-25T18:01:39.615Z,0
2017-01-25T18:03:52.324Z,0
2017-01-25T18:06:04.988Z,0
2017-01-25T18:08:12.166Z,0
2017-01-25T18:10:38.147Z,0
2017-01-25T18:13:06.069Z,0
2017-01-25T18:15:25.513Z,0
2017-01-25T18:17:44.617Z,0
2017-01-25T18:19:55.328Z,0
2017-01-25T18:22:14.929Z,0
2017-01-25T18:24:29.871Z,0
2017-01-25T18:26:44.128Z,0
2017-01-25T18:28:58.592Z,0
2017-01-25T18:31:13.262Z,0
2017-01-25T18:33:28.227Z,0
2017-01-25T18:35:42.765Z,0
2017-01-25T18:37:59.940Z,0
2017-01-25T18:40:14.816Z,0
2017-01-25T18:42:31.414Z,0
2017-01-25T18:44:45.588Z,0
2017-01-25T18:47:27.330Z,0
2017-01-25T18:50:17.886Z,0
2017-01-25T18:53:06.401Z,0
2017-01-25T18:56:00.610Z,0
2017-01-25T18:58:54.419Z,0
2017-01-25T19:01:49.364Z,0
2017-01-25T19:04:41.624Z,0
2017-01-25T19:07:12.418Z,0
2017-01-25T19:09:27.795Z,0
2017-01-25T19:12:04.002Z,0
2017-01-25T19:14:37.928Z,0
2017-01-25T19:17:08.842Z,0
2017-01-25T19:19:43.603Z,0
2017-01-25T19:22:19.603Z,0
2017-01-25T19:25:00.420Z,0
2017-01-25T19:27:33.781Z,0
2017-01-25T19:30:06.135Z,0
2017-01-25T19:32:29.317Z,0
2017-01-25T19:34:53.913Z,0
2017-01-25T19:37:29.012Z,0
2017-01-25T19:40:00.428Z,0
2017-01-25T19:42:37.387Z,0
2017-01-25T19:45:23.471Z,0
2017-01-25T19:47:51.721Z,0
2017-01-25T19:50:25.856Z,0
2017-01-25T19:52:54.586Z,0
2017-01-25T19:55:19.432Z,0
2017-01-25T19:57:54.127Z,0
2017-01-25T20:00:25.286Z,0
2017-01-25T20:02:51.426Z,0
2017-01-25T20:05:23.338Z,0
2017-01-25T20:07:46.869Z,0
2017-01-25T20:10:12.602Z,0
2017-01-25T20:12:46.332Z,0
2017-01-25T20:15:18.464Z,0
2017-01-25T20:17:41.865Z,0
2017-01-25T20:20:07.952Z,0
2017-01-25T20:22:32.579Z,0
2017-01-25T20:25:02.987Z,0
2017-01-25T20:27:30.318Z,0
2017-01-25T20:30:01.167Z,0
2017-01-25T20:32:32.729Z,0
2017-01-25T20:34:55.241Z,0
2017-01-25T20:37:18.437Z,0
2017-01-25T20:39:33.330Z,0
2017-01-25T20:41:51.612Z,0
2017-01-25T20:44:30.240Z,0
2017-01-25T20:47:03.616Z,0
2017-01-25T20:49:38.499Z,0
2017-01-25T20:52:14.182Z,0
2017-01-25T20:54:49.724Z,0
2017-01-25T20:57:20.179Z,0
2017-01-25T20:59:57.015Z,0
2017-01-25T21:02:37.334Z,0
2017-01-25T21:05:19.226Z,0
2017-01-25T21:07:59.541Z,0
2017-01-25T21:10:35.893Z,0
2017-01-25T21:12:48.198Z,0
2017-01-25T21:15:00.924Z,0
2017-01-25T21:17:13.374Z,0
2017-01-25T21:19:29.899Z,0
2017-01-25T21:21:43.245Z,0
2017-01-25T21:23:55.778Z,0
2017-01-25T21:26:08.623Z,0
2017-01-25T21:28:21.601Z,0
2017-01-25T21:30:34.401Z,0
2017-01-25T21:32:48.484Z,0
2017-01-25T21:34:58.254Z,0
2017-01-25T21:37:10.871Z,0
2017-01-25T21:39:20.567Z,0
2017-01-25T21:41:35.755Z,0
2017-01-25T21:43:48.344Z,0
2017-01-25T21:46:00.814Z,0
2017-01-25T21:48:13.064Z,0
2017-01-25T21:50:25.468Z,0
2017-01-25T21:52:37.766Z,0
2017-01-25T21:54:50.236Z,0
2017-01-25T21:57:05.241Z,0
2017-01-25T21:59:19.253Z,0
2017-01-25T22:01:31.457Z,0
2017-01-25T22:03:43.914Z,0
2017-01-25T22:05:56.501Z,0
2017-01-25T22:08:09.061Z,0
2017-01-25T22:10:21.347Z,0
2017-01-25T22:12:33.796Z,0
2017-01-25T22:14:46.181Z,0
2017-01-25T22:16:58.730Z,0
2017-01-25T22:19:11.237Z,0
2017-01-25T22:21:23.657Z,0
2017-01-25T22:23:36.031Z,0
2017-01-25T22:25:48.355Z,0
2017-01-25T22:28:00.835Z,0
2017-01-25T22:30:13.212Z,0
2017-01-25T22:32:25.692Z,0
2017-01-25T22:34:38.068Z,0
2017-01-25T22:36:50.605Z,0
2017-01-25T22:39:05.348Z,0
2017-01-25T22:41:17.908Z,0
2017-01-25T22:43:37.157Z,0
2017-01-25T22:45:49.487Z,0
2017-01-25T22:47:57.007Z,0
2017-01-25T22:50:04.634Z,0
2017-01-25T22:52:17.806Z,0
2017-01-25T22:54:25.319Z,0
2017-01-25T22:56:37.847Z,0
2017-01-25T22:58:50.340Z,0
2017-01-25T23:01:02.924Z,0
2017-01-25T23:03:15.360Z,0
2017-01-25T23:05:27.812Z,0
2017-01-25T23:07:40.157Z,0
2017-01-25T23:09:52.648Z,0
2017-01-25T23:12:05.401Z,0
2017-01-25T23:14:18.186Z,0
2017-01-25T23:16:30.642Z,0
2017-01-25T23:18:43.042Z,0
2017-01-25T23:20:50.539Z,0
2017-01-25T23:22:57.871Z,0
2017-01-25T23:25:10.170Z,0
2017-01-25T23:27:22.429Z,0
2017-01-25T23:29:34.916Z,0
2017-01-25T23:31:42.272Z,0
2017-01-25T23:33:54.709Z,0
2017-01-25T23:36:07.016Z,0
2017-01-25T23:38:19.379Z,0
2017-01-25T23:40:32.262Z,0
2017-01-25T23:42:44.651Z,0
2017-01-25T23:44:56.934Z,0
2017-01-25T23:47:09.378Z,0
2017-01-25T23:49:17.344Z,0
2017-01-25T23:51:29.802Z,0
2017-01-25T23:53:42.242Z,0
2017-01-25T23:55:44.618Z,0
2017-01-25T23:57:56.850Z,0
